createdAt,value
2018-05-29T00:00:23.911Z,17.33
2018-05-29T00:01:23.779Z,17.33
2018-05-29T00:02:23.827Z,17.35
2018-05-29T00:03:23.782Z,17.43
2018-05-29T00:04:23.798Z,17.48
2018-05-29T00:05:23.828Z,17.48
2018-05-29T00:06:23.885Z,17.63
2018-05-29T00:07:23.862Z,17.67
2018-05-29T00:08:23.799Z,17.62
2018-05-29T00:09:23.806Z,17.62
2018-05-29T00:10:23.814Z,17.54
2018-05-29T00:11:23.787Z,17.51
2018-05-29T00:12:23.757Z,17.38
2018-05-29T00:13:23.747Z,17.47
2018-05-29T00:14:23.810Z,17.48
2018-05-29T00:15:23.782Z,17.63
2018-05-29T00:16:23.860Z,17.67
2018-05-29T00:17:23.839Z,17.64
2018-05-29T00:18:23.762Z,17.74
2018-05-29T00:19:23.759Z,17.64
2018-05-29T00:20:23.756Z,17.66
2018-05-29T00:21:23.729Z,17.62
2018-05-29T00:22:23.790Z,17.44
2018-05-29T00:23:23.781Z,17.44
2018-05-29T00:24:23.724Z,17.36
2018-05-29T00:25:23.765Z,17.26
2018-05-29T00:26:23.794Z,17.15
2018-05-29T00:27:23.842Z,17.20
2018-05-29T00:28:23.754Z,17.15
2018-05-29T00:29:23.747Z,17.13
2018-05-29T00:30:23.744Z,17.07
2018-05-29T00:31:23.756Z,17.13
2018-05-29T00:32:23.697Z,17.03
2018-05-29T00:33:23.758Z,16.99
2018-05-29T00:34:23.721Z,17.03
2018-05-29T00:35:23.720Z,17.03
2018-05-29T00:36:23.701Z,17.14
2018-05-29T00:37:23.733Z,17.14
2018-05-29T00:38:23.687Z,17.18
2018-05-29T00:39:23.700Z,17.30
2018-05-29T00:40:23.697Z,17.40
2018-05-29T00:41:23.698Z,17.46
2018-05-29T00:42:23.662Z,17.44
2018-05-29T00:43:23.686Z,17.47
2018-05-29T00:44:23.762Z,17.44
2018-05-29T00:45:23.659Z,17.41
2018-05-29T00:46:23.659Z,17.29
2018-05-29T00:47:23.688Z,17.28
2018-05-29T00:48:23.697Z,17.18
2018-05-29T00:49:23.707Z,17.08
2018-05-29T00:50:23.708Z,16.96
2018-05-29T00:51:23.653Z,16.85
2018-05-29T00:52:23.676Z,16.75
2018-05-29T00:53:23.647Z,16.59
2018-05-29T00:54:23.631Z,16.56
2018-05-29T00:55:23.742Z,16.42
2018-05-29T00:56:23.677Z,16.41
2018-05-29T00:57:23.693Z,16.25
2018-05-29T00:58:23.642Z,16.22
2018-05-29T00:59:23.641Z,16.23
2018-05-29T01:00:23.663Z,16.16
2018-05-29T01:01:23.649Z,16.23
2018-05-29T01:02:23.744Z,16.25
2018-05-29T01:03:23.620Z,16.22
2018-05-29T01:04:23.626Z,16.18
2018-05-29T01:05:23.647Z,16.18
2018-05-29T01:06:23.626Z,16.20
2018-05-29T01:07:23.664Z,16.20
2018-05-29T01:08:23.633Z,16.11
2018-05-29T01:09:23.640Z,16.09
2018-05-29T01:10:23.607Z,16.06
2018-05-29T01:11:23.634Z,16.03
2018-05-29T01:12:23.610Z,16.04
2018-05-29T01:13:23.677Z,16.01
2018-05-29T01:14:23.624Z,15.97
2018-05-29T01:15:23.685Z,15.96
2018-05-29T01:16:23.601Z,16.01
2018-05-29T01:17:23.600Z,16.00
2018-05-29T01:18:23.582Z,15.94
2018-05-29T01:19:23.636Z,15.92
2018-05-29T01:20:23.572Z,16.00
2018-05-29T01:21:23.559Z,15.86
2018-05-29T01:22:23.578Z,15.92
2018-05-29T01:23:23.574Z,15.79
2018-05-29T01:24:23.595Z,15.85
2018-05-29T01:25:23.617Z,15.99
2018-05-29T01:26:23.581Z,16.04
2018-05-29T01:27:23.596Z,16.01
2018-05-29T01:28:23.669Z,15.99
2018-05-29T01:29:23.583Z,16.09
2018-05-29T01:30:23.604Z,16.15
2018-05-29T02:03:12.253Z,15.48
2018-05-29T02:04:12.219Z,15.42
2018-05-29T02:06:05.238Z,15.33
2018-05-29T02:07:05.217Z,15.36
2018-05-29T02:08:05.207Z,15.38
2018-05-29T02:09:05.198Z,15.41
2018-05-29T02:10:05.189Z,15.41
2018-05-29T02:11:05.189Z,15.45
2018-05-29T02:12:05.178Z,15.49
2018-05-29T02:13:05.223Z,15.45
2018-05-29T02:14:05.163Z,15.35
2018-05-29T02:15:05.202Z,15.45
2018-05-29T02:16:05.161Z,15.41
2018-05-29T02:17:05.198Z,15.41
2018-05-29T02:18:05.146Z,15.38
2018-05-29T02:19:05.147Z,15.48
2018-05-29T02:20:05.136Z,15.48
2018-05-29T02:21:05.137Z,15.43
2018-05-29T02:22:05.131Z,15.48
2018-05-29T02:23:05.127Z,15.42
2018-05-29T02:24:05.123Z,15.48
2018-05-29T02:25:05.118Z,15.59
2018-05-29T02:26:05.126Z,15.63
2018-05-29T02:27:05.111Z,15.64
2018-05-29T02:28:05.113Z,15.70
2018-05-29T02:29:05.111Z,15.82
2018-05-29T02:30:05.101Z,15.86
2018-05-29T02:31:05.100Z,15.86
2018-05-29T02:32:05.095Z,15.94
2018-05-29T02:33:05.095Z,15.93
2018-05-29T02:34:05.089Z,15.89
2018-05-29T02:35:05.099Z,15.93
2018-05-29T02:36:05.083Z,15.92
2018-05-29T02:37:12.234Z,15.92
2018-05-29T02:38:58.049Z,15.81
2018-05-29T02:39:59.033Z,15.74
2018-05-29T02:41:50.984Z,15.74
2018-05-29T02:42:50.970Z,15.74
2018-05-29T02:44:43.981Z,15.72
2018-05-29T02:45:43.961Z,15.67
2018-05-29T02:47:36.986Z,15.46
2018-05-29T02:48:36.968Z,15.43
2018-05-29T02:50:29.908Z,15.41
2018-05-29T02:51:29.883Z,15.36
2018-05-29T02:53:22.844Z,15.38
2018-05-29T02:54:22.812Z,15.39
2018-05-29T02:56:15.729Z,15.42
2018-05-29T02:57:15.713Z,15.43
2018-05-29T02:59:08.646Z,15.42
2018-05-29T03:00:08.631Z,15.48
2018-05-29T03:02:01.538Z,15.52
2018-05-29T03:03:01.537Z,15.51
2018-05-29T03:04:54.433Z,15.51
2018-05-29T03:05:54.413Z,15.52
2018-05-29T03:07:47.348Z,15.57
2018-05-29T03:08:47.338Z,15.48
2018-05-29T03:10:40.269Z,15.59
2018-05-29T03:11:40.241Z,15.60
2018-05-29T03:13:33.194Z,15.56
2018-05-29T03:14:33.190Z,15.52
2018-05-29T03:16:26.132Z,15.46
2018-05-29T03:17:26.109Z,15.48
2018-05-29T03:19:19.066Z,15.41
2018-05-29T03:20:19.045Z,15.33
2018-05-29T03:22:12.047Z,15.12
2018-05-29T03:23:12.035Z,15.03
2018-05-29T03:25:05.034Z,15.02
2018-05-29T03:26:05.009Z,14.90
2018-05-29T03:27:57.942Z,14.88
2018-05-29T03:28:57.935Z,14.88
2018-05-29T03:30:50.853Z,14.88
2018-05-29T03:31:50.839Z,14.91
2018-05-29T03:33:43.763Z,14.84
2018-05-29T03:34:43.739Z,14.86
2018-05-29T03:36:36.717Z,14.90
2018-05-29T03:37:36.699Z,14.88
2018-05-29T03:39:29.608Z,14.91
2018-05-29T03:40:29.618Z,15.01
2018-05-29T03:42:22.519Z,15.09
2018-05-29T03:43:22.498Z,15.11
2018-05-29T03:45:15.517Z,15.30
2018-05-29T03:46:15.488Z,15.36
2018-05-29T03:48:08.484Z,15.52
2018-05-29T03:49:08.477Z,15.63
2018-05-29T03:51:01.448Z,15.76
2018-05-29T03:52:01.432Z,15.78
2018-05-29T03:53:54.402Z,15.92
2018-05-29T03:54:54.399Z,15.97
2018-05-29T03:56:47.318Z,16.06
2018-05-29T03:57:47.292Z,16.14
2018-05-29T03:59:40.223Z,16.12
2018-05-29T04:00:40.208Z,16.22
2018-05-29T04:02:33.234Z,16.23
2018-05-29T04:03:33.215Z,16.30
2018-05-29T04:05:26.112Z,16.34
2018-05-29T04:06:26.099Z,16.37
2018-05-29T04:08:19.226Z,16.40
2018-05-29T04:09:19.176Z,16.52
2018-05-29T04:11:12.105Z,16.53
2018-05-29T04:12:12.077Z,16.50
2018-05-29T04:14:05.076Z,16.52
2018-05-29T04:15:05.065Z,16.60
2018-05-29T04:16:58.011Z,16.52
2018-05-29T04:17:57.944Z,16.50
2018-05-29T04:19:50.894Z,16.53
2018-05-29T04:20:50.888Z,16.42
2018-05-29T04:22:43.830Z,16.48
2018-05-29T04:23:43.810Z,16.49
2018-05-29T04:25:36.734Z,16.53
2018-05-29T04:26:36.723Z,16.55
2018-05-29T04:28:29.679Z,16.58
2018-05-29T04:29:29.656Z,16.55
2018-05-29T04:31:22.599Z,16.60
2018-05-29T04:32:22.587Z,16.60
2018-05-29T04:35:06.610Z,16.59
2018-05-29T04:36:06.583Z,16.65
2018-05-29T04:37:59.498Z,16.73
2018-05-29T04:38:59.474Z,16.71
2018-05-29T04:40:52.441Z,16.70
2018-05-29T04:41:52.434Z,16.68
2018-05-29T04:43:45.418Z,16.71
2018-05-29T04:44:45.384Z,16.71
2018-05-29T04:46:38.303Z,16.73
2018-05-29T04:47:38.291Z,16.75
2018-05-29T04:49:31.271Z,16.78
2018-05-29T04:50:31.250Z,16.81
2018-05-29T04:52:24.168Z,16.80
2018-05-29T04:53:24.163Z,16.85
2018-05-29T04:55:17.096Z,16.88
2018-05-29T04:56:17.075Z,16.78
2018-05-29T04:58:10.063Z,16.90
2018-05-29T04:59:10.051Z,16.95
2018-05-29T05:01:02.982Z,17.00
2018-05-29T05:02:02.961Z,17.08
2018-05-29T05:03:55.981Z,17.08
2018-05-29T05:04:55.957Z,17.08
2018-05-29T05:06:48.979Z,17.20
2018-05-29T05:07:48.968Z,17.26
2018-05-29T05:09:41.890Z,17.32
2018-05-29T05:10:41.872Z,17.25
2018-05-29T05:12:34.770Z,17.32
2018-05-29T05:13:34.755Z,17.38
2018-05-29T05:15:28.015Z,17.51
2018-05-29T05:16:27.704Z,17.50
2018-05-29T05:18:20.637Z,17.63
2018-05-29T05:19:20.644Z,17.57
2018-05-29T05:21:13.595Z,17.69
2018-05-29T05:22:13.570Z,17.69
2018-05-29T05:24:06.548Z,17.71
2018-05-29T05:25:06.534Z,17.64
2018-05-29T05:26:59.507Z,17.76
2018-05-29T05:27:59.490Z,17.88
2018-05-29T05:29:52.522Z,17.95
2018-05-29T05:30:52.491Z,18.00
2018-05-29T05:32:45.515Z,18.17
2018-05-29T05:33:45.503Z,18.10
2018-05-29T05:35:38.517Z,18.07
2018-05-29T05:36:38.497Z,18.13
2018-05-29T05:38:31.514Z,18.15
2018-05-29T05:39:31.498Z,18.17
2018-05-29T05:41:24.529Z,18.29
2018-05-29T05:42:24.508Z,18.33
2018-05-29T05:44:17.524Z,18.49
2018-05-29T05:45:17.514Z,18.39
2018-05-29T05:47:10.531Z,18.50
2018-05-29T05:48:10.514Z,18.64
2018-05-29T05:50:03.523Z,18.62
2018-05-29T05:51:03.513Z,18.55
2018-05-29T05:52:56.539Z,18.67
2018-05-29T05:53:56.521Z,18.70
2018-05-29T05:55:49.537Z,18.73
2018-05-29T05:56:49.678Z,18.79
2018-05-29T05:58:42.538Z,18.90
2018-05-29T05:59:42.531Z,18.86
2018-05-29T06:01:35.549Z,18.95
2018-05-29T06:02:35.530Z,19.02
2018-05-29T06:04:28.528Z,19.15
2018-05-29T06:05:28.518Z,19.25
2018-05-29T06:07:21.555Z,19.31
2018-05-29T06:08:21.538Z,19.38
2018-05-29T06:10:14.546Z,19.43
2018-05-29T06:11:14.536Z,19.39
2018-05-29T06:13:07.556Z,19.21
2018-05-29T06:14:07.527Z,19.20
2018-05-29T06:16:00.576Z,18.95
2018-05-29T06:17:00.520Z,18.84
2018-05-29T06:18:53.532Z,18.91
2018-05-29T06:19:53.512Z,18.79
2018-05-29T06:21:46.541Z,19.06
2018-05-29T06:22:46.509Z,18.94
2018-05-29T06:24:39.512Z,19.17
2018-05-29T06:25:39.506Z,19.24
2018-05-29T06:27:32.577Z,19.43
2018-05-29T06:28:32.650Z,19.55
2018-05-29T06:30:25.569Z,19.70
2018-05-29T06:31:25.558Z,19.87
2018-05-29T06:34:25.774Z,19.94
2018-05-29T06:36:11.526Z,19.78
2018-05-29T06:37:11.522Z,19.69
2018-05-29T06:39:04.597Z,19.68
2018-05-29T06:40:04.575Z,19.66
2018-05-29T06:41:57.581Z,19.66
2018-05-29T06:42:57.574Z,19.57
2018-05-29T06:44:50.525Z,19.86
2018-05-29T06:45:50.483Z,19.98
2018-05-29T06:47:43.437Z,20.15
2018-05-29T06:48:43.429Z,20.13
2018-05-29T06:50:36.375Z,20.15
2018-05-29T06:51:36.356Z,20.03
2018-05-29T06:53:29.329Z,20.10
2018-05-29T06:54:29.319Z,20.20
2018-05-29T06:56:22.324Z,20.54
2018-05-29T06:57:22.301Z,20.77
2018-05-29T06:59:15.331Z,20.91
2018-05-29T07:00:15.318Z,21.16
2018-05-29T07:02:08.258Z,21.23
2018-05-29T07:03:08.254Z,21.41
2018-05-29T07:05:01.257Z,22.47
2018-05-29T07:06:01.239Z,22.53
2018-05-29T07:07:54.152Z,22.90
2018-05-29T07:08:54.148Z,23.29
2018-05-29T07:10:47.171Z,23.32
2018-05-29T07:11:47.154Z,24.16
2018-05-29T07:13:40.128Z,25.57
2018-05-29T07:14:40.138Z,24.87
2018-05-29T07:16:33.135Z,24.12
2018-05-29T07:17:33.136Z,23.35
2018-05-29T07:19:26.178Z,22.92
2018-05-29T07:20:26.167Z,22.92
2018-05-29T07:22:19.211Z,23.17
2018-05-29T07:23:19.213Z,23.09
2018-05-29T07:25:12.259Z,23.40
2018-05-29T07:26:12.246Z,23.58
2018-05-29T07:28:05.170Z,23.47
2018-05-29T07:29:05.165Z,23.57
2018-05-29T07:30:05.175Z,23.72
2018-05-29T07:31:05.181Z,23.79
2018-05-29T07:32:05.188Z,23.75
2018-05-29T07:33:05.193Z,23.94
2018-05-29T07:34:05.206Z,23.97
2018-05-29T07:35:05.208Z,24.12
2018-05-29T07:36:05.204Z,24.04
2018-05-29T07:37:05.215Z,23.90
2018-05-29T07:38:05.224Z,24.12
2018-05-29T07:39:05.223Z,24.07
2018-05-29T07:40:05.235Z,24.32
2018-05-29T07:41:05.233Z,24.57
2018-05-29T07:42:05.245Z,24.59
2018-05-29T07:43:05.251Z,24.44
2018-05-29T07:44:05.254Z,24.41
2018-05-29T07:45:05.288Z,24.53
2018-05-29T07:46:05.266Z,24.57
2018-05-29T07:47:05.281Z,24.53
2018-05-29T07:48:05.289Z,24.27
2018-05-29T07:49:05.311Z,24.42
2018-05-29T07:50:05.297Z,24.37
2018-05-29T07:51:05.306Z,24.02
2018-05-29T07:52:05.399Z,23.75
2018-05-29T07:53:05.324Z,23.65
2018-05-29T07:54:05.318Z,23.75
2018-05-29T07:55:05.331Z,24.02
2018-05-29T07:56:05.340Z,24.19
2018-05-29T07:57:05.338Z,24.19
2018-05-29T07:58:05.382Z,24.29
2018-05-29T07:59:05.361Z,23.82
2018-05-29T08:00:05.367Z,23.89
2018-05-29T08:01:05.369Z,23.97
2018-05-29T08:02:05.381Z,23.50
2018-05-29T08:03:05.378Z,23.76
2018-05-29T08:04:05.390Z,23.80
2018-05-29T08:05:05.397Z,24.10
2018-05-29T08:06:05.400Z,23.43
2018-05-29T08:07:05.403Z,23.32
2018-05-29T08:08:05.416Z,23.09
2018-05-29T08:09:05.420Z,23.32
2018-05-29T08:10:05.425Z,23.71
2018-05-29T08:11:05.430Z,24.19
2018-05-29T08:12:05.436Z,24.88
2018-05-29T08:13:05.446Z,26.02
2018-05-29T08:14:05.457Z,26.72
2018-05-29T08:15:05.461Z,27.73
2018-05-29T08:16:05.465Z,27.99
2018-05-29T08:17:05.472Z,27.85
2018-05-29T08:18:05.481Z,26.91
2018-05-29T08:19:05.498Z,26.67
2018-05-29T08:20:05.506Z,26.61
2018-05-29T08:21:05.522Z,26.11
2018-05-29T08:22:05.531Z,25.86
2018-05-29T08:23:05.539Z,26.22
2018-05-29T08:24:05.553Z,25.69
2018-05-29T08:25:05.561Z,25.13
2018-05-29T08:26:05.576Z,25.10
2018-05-29T08:27:05.581Z,25.28
2018-05-29T08:28:05.595Z,25.64
2018-05-29T08:29:05.606Z,25.99
2018-05-29T08:30:05.620Z,26.35
2018-05-29T08:31:05.670Z,26.58
2018-05-29T08:32:05.636Z,26.81
2018-05-29T08:33:05.647Z,26.76
2018-05-29T08:34:05.658Z,27.11
2018-05-29T08:35:05.664Z,27.11
2018-05-29T08:36:05.674Z,27.50
2018-05-29T08:37:05.705Z,28.17
2018-05-29T08:38:05.694Z,27.95
2018-05-29T08:39:05.721Z,28.03
2018-05-29T08:40:05.717Z,28.06
2018-05-29T08:41:05.733Z,28.11
2018-05-29T08:42:05.733Z,28.22
2018-05-29T08:43:05.748Z,28.51
2018-05-29T08:44:05.796Z,28.53
2018-05-29T08:45:05.763Z,28.90
2018-05-29T08:46:05.819Z,29.18
2018-05-29T08:47:05.789Z,29.31
2018-05-29T08:48:05.804Z,29.35
2018-05-29T08:49:05.830Z,29.44
2018-05-29T08:50:05.822Z,29.26
2018-05-29T08:51:05.846Z,29.59
2018-05-29T08:52:05.849Z,29.78
2018-05-29T08:53:05.863Z,30.23
2018-05-29T08:54:05.874Z,30.93
2018-05-29T08:55:05.890Z,31.13
2018-05-29T08:56:05.907Z,30.47
2018-05-29T08:57:05.953Z,30.59
2018-05-29T08:58:05.936Z,30.78
2018-05-29T08:59:05.952Z,30.30
2018-05-29T09:00:05.966Z,30.33
2018-05-29T09:01:05.979Z,30.49
2018-05-29T09:02:05.989Z,30.81
2018-05-29T09:03:06.012Z,30.80
2018-05-29T09:04:06.085Z,31.13
2018-05-29T09:05:06.048Z,31.02
2018-05-29T09:06:06.067Z,31.21
2018-05-29T09:07:06.081Z,31.96
2018-05-29T09:08:06.098Z,31.17
2018-05-29T09:09:06.107Z,31.13
2018-05-29T09:10:06.125Z,31.02
2018-05-29T09:11:06.145Z,30.83
2018-05-29T09:12:06.156Z,29.79
2018-05-29T09:13:06.175Z,29.15
2018-05-29T09:14:06.193Z,29.22
2018-05-29T09:15:06.208Z,28.50
2018-05-29T09:16:06.222Z,28.62
2018-05-29T09:17:06.241Z,28.31
2018-05-29T09:18:06.255Z,28.90
2018-05-29T09:19:06.265Z,29.35
2018-05-29T09:20:06.329Z,29.89
2018-05-29T09:21:06.309Z,30.46
2018-05-29T09:22:06.311Z,29.38
2018-05-29T09:23:06.339Z,30.38
2018-05-29T09:24:06.338Z,31.33
2018-05-29T09:25:06.352Z,31.84
2018-05-29T09:26:06.408Z,32.43
2018-05-29T09:27:06.389Z,32.74
2018-05-29T09:28:06.413Z,31.84
2018-05-29T09:29:06.423Z,31.58
2018-05-29T09:30:06.446Z,31.46
2018-05-29T09:31:06.461Z,31.11
2018-05-29T09:32:06.480Z,31.15
2018-05-29T09:33:06.500Z,31.35
2018-05-29T09:34:06.515Z,31.35
2018-05-29T09:35:06.524Z,32.81
2018-05-29T09:36:06.550Z,33.49
2018-05-29T09:37:06.588Z,34.00
2018-05-29T09:38:06.592Z,34.31
2018-05-29T09:39:06.611Z,33.67
2018-05-29T09:40:06.625Z,33.83
2018-05-29T09:41:06.646Z,34.57
2018-05-29T09:42:06.670Z,34.92
2018-05-29T09:43:06.690Z,35.81
2018-05-29T09:44:06.713Z,35.30
2018-05-29T09:45:06.730Z,34.66
2018-05-29T09:46:06.750Z,34.64
2018-05-29T09:47:06.787Z,34.17
2018-05-29T09:48:06.789Z,32.88
2018-05-29T09:49:06.808Z,31.93
2018-05-29T09:50:06.823Z,30.93
2018-05-29T09:51:06.863Z,30.99
2018-05-29T09:52:06.874Z,31.24
2018-05-29T09:53:06.903Z,31.58
2018-05-29T09:54:06.911Z,32.44
2018-05-29T09:55:06.946Z,32.54
2018-05-29T09:56:06.942Z,32.52
2018-05-29T09:57:06.972Z,31.26
2018-05-29T09:58:06.977Z,30.78
2018-05-29T09:59:07.001Z,32.44
2018-05-29T10:00:07.021Z,33.14
2018-05-29T10:01:07.055Z,33.95
2018-05-29T10:02:07.064Z,34.05
2018-05-29T10:03:07.082Z,32.84
2018-05-29T10:04:07.100Z,31.33
2018-05-29T10:05:07.123Z,30.16
2018-05-29T10:06:07.133Z,29.66
2018-05-29T10:07:07.239Z,29.20
2018-05-29T10:08:07.177Z,29.20
2018-05-29T10:09:07.193Z,29.19
2018-05-29T10:10:07.208Z,29.29
2018-05-29T10:11:07.234Z,30.29
2018-05-29T10:12:07.249Z,30.23
2018-05-29T10:13:07.265Z,31.01
2018-05-29T10:14:07.277Z,31.53
2018-05-29T10:15:07.300Z,31.33
2018-05-29T10:16:07.311Z,30.12
2018-05-29T10:17:07.399Z,30.56
2018-05-29T10:18:07.351Z,31.79
2018-05-29T10:19:07.371Z,32.48
2018-05-29T10:20:07.382Z,32.79
2018-05-29T10:21:07.397Z,33.07
2018-05-29T10:22:07.431Z,33.11
2018-05-29T10:23:07.438Z,32.85
2018-05-29T10:24:07.446Z,32.37
2018-05-29T10:25:07.466Z,32.30
2018-05-29T10:26:07.479Z,32.74
2018-05-29T10:27:07.494Z,33.58
2018-05-29T10:28:07.519Z,32.55
2018-05-29T10:29:07.538Z,31.39
2018-05-29T10:30:07.552Z,29.75
2018-05-29T10:31:07.573Z,29.74
2018-05-29T10:32:07.593Z,30.27
2018-05-29T10:33:07.614Z,31.76
2018-05-29T10:34:07.624Z,32.43
2018-05-29T10:35:07.638Z,33.14
2018-05-29T10:36:07.662Z,32.99
2018-05-29T10:37:07.678Z,32.21
2018-05-29T10:38:07.701Z,31.15
2018-05-29T10:39:07.717Z,31.79
2018-05-29T10:40:07.730Z,32.88
2018-05-29T10:41:07.756Z,33.15
2018-05-29T10:42:07.779Z,32.89
2018-05-29T10:43:07.789Z,33.49
2018-05-29T10:44:07.799Z,34.05
2018-05-29T10:45:07.822Z,34.01
2018-05-29T10:46:07.873Z,33.52
2018-05-29T10:47:07.863Z,33.19
2018-05-29T10:48:07.883Z,32.73
2018-05-29T10:49:07.899Z,32.59
2018-05-29T10:50:07.921Z,32.15
2018-05-29T10:51:07.943Z,31.73
2018-05-29T10:52:07.954Z,30.54
2018-05-29T10:53:07.972Z,30.09
2018-05-29T10:54:07.989Z,30.59
2018-05-29T10:55:08.015Z,30.45
2018-05-29T10:56:08.032Z,30.37
2018-05-29T10:57:08.049Z,30.78
2018-05-29T10:58:08.061Z,30.00
2018-05-29T10:59:08.103Z,29.81
2018-05-29T11:00:08.112Z,29.47
2018-05-29T11:01:08.111Z,29.28
2018-05-29T11:02:08.126Z,29.33
2018-05-29T11:03:08.141Z,29.29
2018-05-29T11:04:08.163Z,29.47
2018-05-29T11:05:08.171Z,29.06
2018-05-29T11:06:08.193Z,29.11
2018-05-29T11:07:08.205Z,29.25
2018-05-29T11:08:08.220Z,29.11
2018-05-29T11:09:08.229Z,28.63
2018-05-29T11:10:08.242Z,28.63
2018-05-29T11:11:08.276Z,28.90
2018-05-29T11:12:08.271Z,28.96
2018-05-29T11:13:08.295Z,28.56
2018-05-29T11:14:08.298Z,28.72
2018-05-29T11:15:08.307Z,28.17
2018-05-29T11:16:08.320Z,28.23
2018-05-29T11:17:08.332Z,28.03
2018-05-29T11:18:08.338Z,28.22
2018-05-29T11:19:08.362Z,28.38
2018-05-29T11:20:08.374Z,28.72
2018-05-29T11:21:08.382Z,28.84
2018-05-29T11:22:08.402Z,29.10
2018-05-29T11:23:08.408Z,29.18
2018-05-29T11:24:08.422Z,28.65
2018-05-29T11:25:08.430Z,28.62
2018-05-29T11:26:08.441Z,28.59
2018-05-29T11:27:08.459Z,28.60
2018-05-29T11:28:08.468Z,28.26
2018-05-29T11:29:08.479Z,28.33
2018-05-29T11:30:08.486Z,28.26
2018-05-29T11:31:08.501Z,27.88
2018-05-29T11:32:08.513Z,27.85
2018-05-29T11:33:08.523Z,27.58
2018-05-29T11:34:08.531Z,27.61
2018-05-29T11:35:08.543Z,27.53
2018-05-29T11:36:08.556Z,27.61
2018-05-29T11:37:08.565Z,27.09
2018-05-29T11:38:08.579Z,27.10
2018-05-29T11:39:08.580Z,26.79
2018-05-29T11:40:08.596Z,26.72
2018-05-29T11:41:08.601Z,26.54
2018-05-29T11:42:08.622Z,26.64
2018-05-29T11:43:08.625Z,26.37
2018-05-29T11:44:08.635Z,26.05
2018-05-29T11:45:08.645Z,25.89
2018-05-29T11:46:08.650Z,25.67
2018-05-29T11:47:08.659Z,25.56
2018-05-29T11:48:08.669Z,25.75
2018-05-29T11:49:08.686Z,25.56
2018-05-29T11:50:08.691Z,25.44
2018-05-29T11:51:08.699Z,25.43
2018-05-29T11:52:08.704Z,25.54
2018-05-29T11:53:08.712Z,25.56
2018-05-29T11:54:08.726Z,25.68
2018-05-29T11:55:08.732Z,25.56
2018-05-29T11:56:08.758Z,25.32
2018-05-29T11:57:08.769Z,25.31
2018-05-29T11:58:08.755Z,25.13
2018-05-29T11:59:08.758Z,25.15
2018-05-29T12:00:08.769Z,25.43
2018-05-29T12:01:08.775Z,25.49
2018-05-29T12:02:08.796Z,25.69
2018-05-29T12:03:08.787Z,25.84
2018-05-29T12:04:08.809Z,25.84
2018-05-29T12:05:08.805Z,25.89
2018-05-29T12:06:08.811Z,25.87
2018-05-29T12:07:08.821Z,26.20
2018-05-29T12:08:08.828Z,26.17
2018-05-29T12:09:08.835Z,26.22
2018-05-29T12:10:08.842Z,26.50
2018-05-29T12:11:08.857Z,26.61
2018-05-29T12:12:08.862Z,26.50
2018-05-29T12:13:08.868Z,26.57
2018-05-29T12:14:08.876Z,26.64
2018-05-29T12:15:08.880Z,26.59
2018-05-29T12:16:08.884Z,26.76
2018-05-29T12:17:08.893Z,27.04
2018-05-29T12:18:08.905Z,26.89
2018-05-29T12:19:08.912Z,27.05
2018-05-29T12:20:08.935Z,26.57
2018-05-29T12:21:08.929Z,26.46
2018-05-29T12:22:08.937Z,26.76
2018-05-29T12:23:08.945Z,26.94
2018-05-29T12:24:08.951Z,27.02
2018-05-29T12:25:08.961Z,26.62
2018-05-29T12:26:08.971Z,26.69
2018-05-29T12:27:08.975Z,26.61
2018-05-29T12:28:09.013Z,26.65
2018-05-29T12:29:08.992Z,27.02
2018-05-29T12:30:09.002Z,27.05
2018-05-29T12:31:09.012Z,27.32
2018-05-29T12:32:09.014Z,27.46
2018-05-29T12:33:09.031Z,27.47
2018-05-29T12:34:09.036Z,27.38
2018-05-29T12:35:09.042Z,27.35
2018-05-29T12:36:09.057Z,27.33
2018-05-29T12:37:09.072Z,27.02
2018-05-29T12:38:09.067Z,27.06
2018-05-29T12:39:09.080Z,27.14
2018-05-29T12:40:09.087Z,27.14
2018-05-29T12:41:09.098Z,27.02
2018-05-29T12:42:09.101Z,27.20
2018-05-29T12:43:09.109Z,27.09
2018-05-29T12:44:09.120Z,27.04
2018-05-29T12:45:09.129Z,26.87
2018-05-29T12:46:09.165Z,26.91
2018-05-29T12:47:09.138Z,26.84
2018-05-29T12:48:09.154Z,26.96
2018-05-29T12:49:09.169Z,26.47
2018-05-29T12:50:09.173Z,26.05
2018-05-29T12:51:09.173Z,25.99
2018-05-29T12:52:09.182Z,25.75
2018-05-29T12:53:09.196Z,25.72
2018-05-29T12:54:09.208Z,25.65
2018-05-29T12:55:09.212Z,25.30
2018-05-29T12:56:09.221Z,25.44
2018-05-29T12:57:09.229Z,25.57
2018-05-29T12:58:09.238Z,25.64
2018-05-29T12:59:09.256Z,25.72
2018-05-29T13:00:09.257Z,25.83
2018-05-29T13:01:09.269Z,26.09
2018-05-29T13:02:09.280Z,26.12
2018-05-29T13:03:09.282Z,26.20
2018-05-29T13:04:09.287Z,26.31
2018-05-29T13:05:09.295Z,26.35
2018-05-29T13:06:09.300Z,26.57
2018-05-29T13:07:09.339Z,26.44
2018-05-29T13:08:09.317Z,26.12
2018-05-29T13:09:09.325Z,26.24
2018-05-29T13:10:09.331Z,26.22
2018-05-29T13:11:09.345Z,26.28
2018-05-29T13:12:09.346Z,26.31
2018-05-29T13:13:09.355Z,26.49
2018-05-29T13:14:09.360Z,26.81
2018-05-29T13:15:09.382Z,27.20
2018-05-29T13:16:09.375Z,27.53
2018-05-29T13:17:09.384Z,27.85
2018-05-29T13:18:09.395Z,27.94
2018-05-29T13:19:09.403Z,27.76
2018-05-29T13:20:09.401Z,27.58
2018-05-29T13:21:09.415Z,27.47
2018-05-29T13:22:09.413Z,27.46
2018-05-29T13:23:09.449Z,27.21
2018-05-29T13:24:09.432Z,27.19
2018-05-29T13:25:09.438Z,26.76
2018-05-29T13:26:09.438Z,26.06
2018-05-29T13:27:09.515Z,26.28
2018-05-29T13:28:09.506Z,26.36
2018-05-29T13:29:09.462Z,26.47
2018-05-29T13:30:09.468Z,26.59
2018-05-29T13:31:09.475Z,26.52
2018-05-29T13:32:09.478Z,26.64
2018-05-29T13:33:09.483Z,26.73
2018-05-29T13:34:09.490Z,26.65
2018-05-29T13:35:09.534Z,25.79
2018-05-29T13:36:09.506Z,25.57
2018-05-29T13:37:09.509Z,25.44
2018-05-29T13:38:09.517Z,25.07
2018-05-29T13:39:09.531Z,24.88
2018-05-29T13:40:09.524Z,24.91
2018-05-29T13:41:09.534Z,25.07
2018-05-29T13:42:09.535Z,24.95
2018-05-29T13:43:09.541Z,24.92
2018-05-29T13:44:09.545Z,24.87
2018-05-29T13:45:09.541Z,24.88
2018-05-29T13:46:09.541Z,25.00
2018-05-29T13:47:09.558Z,25.05
2018-05-29T13:48:09.563Z,25.06
2018-05-29T13:49:09.603Z,25.24
2018-05-29T13:50:09.569Z,25.17
2018-05-29T13:51:09.569Z,25.06
2018-05-29T13:52:09.585Z,25.25
2018-05-29T13:53:09.580Z,25.20
2018-05-29T13:54:09.585Z,25.28
2018-05-29T13:55:09.592Z,25.17
2018-05-29T13:56:09.600Z,25.12
2018-05-29T13:57:09.607Z,25.13
2018-05-29T13:58:09.603Z,24.88
2018-05-29T13:59:09.618Z,24.67
2018-05-29T14:00:09.599Z,24.61
2018-05-29T14:01:09.609Z,24.38
2018-05-29T14:02:09.610Z,24.14
2018-05-29T14:03:09.620Z,24.29
2018-05-29T14:04:09.621Z,24.38
2018-05-29T14:05:09.625Z,24.57
2018-05-29T14:06:09.625Z,24.56
2018-05-29T14:07:09.631Z,24.61
2018-05-29T14:08:09.637Z,24.54
2018-05-29T14:09:09.652Z,24.61
2018-05-29T14:10:09.632Z,24.53
2018-05-29T14:11:09.641Z,24.61
2018-05-29T14:12:09.644Z,24.50
2018-05-29T14:13:09.642Z,24.54
2018-05-29T14:14:09.647Z,24.67
2018-05-29T14:15:09.648Z,24.69
2018-05-29T14:16:09.644Z,24.68
2018-05-29T14:17:09.649Z,24.69
2018-05-29T14:18:09.656Z,24.71
2018-05-29T14:19:09.659Z,24.76
2018-05-29T14:20:09.658Z,24.87
2018-05-29T14:21:09.666Z,25.00
2018-05-29T14:22:09.668Z,25.07
2018-05-29T14:23:09.677Z,24.97
2018-05-29T14:24:09.688Z,24.83
2018-05-29T14:25:09.674Z,24.88
2018-05-29T14:26:09.683Z,24.85
2018-05-29T14:27:09.678Z,24.77
2018-05-29T14:28:09.683Z,24.61
2018-05-29T14:29:09.689Z,24.61
2018-05-29T14:30:09.688Z,24.53
2018-05-29T14:31:09.687Z,24.59
2018-05-29T14:32:09.692Z,24.47
2018-05-29T14:33:09.713Z,24.47
2018-05-29T14:34:09.692Z,24.29
2018-05-29T14:35:09.696Z,24.34
2018-05-29T14:36:09.701Z,24.57
2018-05-29T14:37:09.703Z,24.61
2018-05-29T14:38:09.705Z,24.73
2018-05-29T14:39:09.710Z,24.67
2018-05-29T14:40:09.724Z,24.73
2018-05-29T14:41:09.711Z,24.60
2018-05-29T14:42:09.711Z,24.73
2018-05-29T14:43:09.712Z,24.73
2018-05-29T14:44:09.764Z,24.67
2018-05-29T14:45:09.719Z,24.69
2018-05-29T14:46:09.732Z,24.61
2018-05-29T14:47:09.728Z,24.64
2018-05-29T14:48:09.739Z,24.77
2018-05-29T14:49:09.729Z,24.64
2018-05-29T14:50:09.731Z,24.68
2018-05-29T14:51:09.733Z,24.67
2018-05-29T14:52:09.733Z,24.63
2018-05-29T14:53:09.737Z,24.68
2018-05-29T14:54:09.738Z,24.61
2018-05-29T14:55:09.743Z,24.63
2018-05-29T14:56:09.741Z,24.60